Terminal Aerodrome Forecast
Issued by NWS Paducah, KY

Home | Current Version | Previous Version | Text Only | Print | Product List | Glossary On
Versions: 1 2 3 4 5 6 7 8 9 10 11 12 13 14 15 16 17 18 19 20 21
164
FTUS43 KPAH 262330
TAFEVV
TAF
KEVV 262330Z 2700/2724 24005KT P6SM SCT250
     FM270100 VRB03KT P6SM BKN250
     FM271300 14007KT 6SM -SHRA BKN050
      TEMPO 2713/2717 3SM TSRA BKN035CB
     FM271700 18009KT P6SM BKN035
     FM272200 17006KT P6SM VCTS BKN040CB=

USA.gov is the U.S. government's official web portal to all federal, state and local government web resources and services.